sensor_id;sensor_type;location;lat;lon;timestamp;temperature;humidity
68556;HTU21D;55544;51.032;5.866;2022-12-18T00:02:18;-3.20;72.08
68556;HTU21D;55544;51.032;5.866;2022-12-18T00:04:44;-3.21;72.17
68556;HTU21D;55544;51.032;5.866;2022-12-18T00:07:10;-3.22;72.34
68556;HTU21D;55544;51.032;5.866;2022-12-18T00:09:36;-3.22;72.39
68556;HTU21D;55544;51.032;5.866;2022-12-18T00:12:02;-3.21;72.35
68556;HTU21D;55544;51.032;5.866;2022-12-18T00:14:27;-3.19;72.04
68556;HTU21D;55544;51.032;5.866;2022-12-18T00:16:53;-3.17;71.98
68556;HTU21D;55544;51.032;5.866;2022-12-18T00:19:19;-3.13;71.54
68556;HTU21D;55544;51.032;5.866;2022-12-18T00:21:44;-3.09;71.32
68556;HTU21D;55544;51.032;5.866;2022-12-18T00:24:11;-3.09;71.26
68556;HTU21D;55544;51.032;5.866;2022-12-18T00:26:38;-3.06;71.23
68556;HTU21D;55544;51.032;5.866;2022-12-18T00:29:12;-3.04;71.10
68556;HTU21D;55544;51.032;5.866;2022-12-18T00:31:40;-3.08;70.96
68556;HTU21D;55544;51.032;5.866;2022-12-18T00:34:10;-3.10;70.72
68556;HTU21D;55544;51.032;5.866;2022-12-18T00:36:39;-3.13;70.76
68556;HTU21D;55544;51.032;5.866;2022-12-18T00:39:06;-3.15;70.90
68556;HTU21D;55544;51.032;5.866;2022-12-18T00:41:32;-3.13;70.67
68556;HTU21D;55544;51.032;5.866;2022-12-18T00:44:18;-3.12;70.42
68556;HTU21D;55544;51.032;5.866;2022-12-18T00:46:46;-3.15;70.42
68556;HTU21D;55544;51.032;5.866;2022-12-18T00:49:12;-3.16;70.45
68556;HTU21D;55544;51.032;5.866;2022-12-18T00:51:38;-3.16;70.34
68556;HTU21D;55544;51.032;5.866;2022-12-18T00:54:05;-3.19;70.45
68556;HTU21D;55544;51.032;5.866;2022-12-18T00:56:31;-3.19;70.57
68556;HTU21D;55544;51.032;5.866;2022-12-18T00:58:57;-3.18;70.52
68556;HTU21D;55544;51.032;5.866;2022-12-18T01:01:22;-3.18;70.52
68556;HTU21D;55544;51.032;5.866;2022-12-18T01:03:48;-3.20;70.58
68556;HTU21D;55544;51.032;5.866;2022-12-18T01:06:16;-3.20;70.69
68556;HTU21D;55544;51.032;5.866;2022-12-18T01:08:42;-3.22;70.65
68556;HTU21D;55544;51.032;5.866;2022-12-18T01:11:14;-3.21;70.69
68556;HTU21D;55544;51.032;5.866;2022-12-18T01:13:41;-3.22;70.80
68556;HTU21D;55544;51.032;5.866;2022-12-18T01:16:07;-3.24;70.84
68556;HTU21D;55544;51.032;5.866;2022-12-18T01:18:35;-3.25;70.73
68556;HTU21D;55544;51.032;5.866;2022-12-18T01:21:06;-3.27;70.74
68556;HTU21D;55544;51.032;5.866;2022-12-18T01:23:32;-3.28;70.77
68556;HTU21D;55544;51.032;5.866;2022-12-18T01:26:08;-3.30;70.83
68556;HTU21D;55544;51.032;5.866;2022-12-18T01:28:35;-3.32;70.91
68556;HTU21D;55544;51.032;5.866;2022-12-18T01:33:45;-3.31;71.09
68556;HTU21D;55544;51.032;5.866;2022-12-18T01:36:19;-3.30;71.12
68556;HTU21D;55544;51.032;5.866;2022-12-18T01:38:46;-3.31;71.20
68556;HTU21D;55544;51.032;5.866;2022-12-18T01:41:13;-3.32;71.13
68556;HTU21D;55544;51.032;5.866;2022-12-18T01:43:46;-3.33;71.06
68556;HTU21D;55544;51.032;5.866;2022-12-18T01:46:12;-3.32;71.02
68556;HTU21D;55544;51.032;5.866;2022-12-18T01:48:39;-3.32;71.03
68556;HTU21D;55544;51.032;5.866;2022-12-18T01:51:09;-3.33;71.13
68556;HTU21D;55544;51.032;5.866;2022-12-18T01:53:37;-3.33;71.13
68556;HTU21D;55544;51.032;5.866;2022-12-18T01:56:04;-3.34;71.14
68556;HTU21D;55544;51.032;5.866;2022-12-18T02:01:16;-3.33;71.10
68556;HTU21D;55544;51.032;5.866;2022-12-18T02:03:43;-3.33;71.11
68556;HTU21D;55544;51.032;5.866;2022-12-18T02:06:35;-3.34;70.93
68556;HTU21D;55544;51.032;5.866;2022-12-18T02:09:26;-3.35;70.70
68556;HTU21D;55544;51.032;5.866;2022-12-18T02:12:17;-3.35;70.39
68556;HTU21D;55544;51.032;5.866;2022-12-18T02:15:06;-3.35;70.50
68556;HTU21D;55544;51.032;5.866;2022-12-18T02:18:12;-3.36;70.61
68556;HTU21D;55544;51.032;5.866;2022-12-18T02:20:51;-3.37;70.72
68556;HTU21D;55544;51.032;5.866;2022-12-18T02:23:53;-3.37;70.65
68556;HTU21D;55544;51.032;5.866;2022-12-18T02:28:55;-3.39;70.74
68556;HTU21D;55544;51.032;5.866;2022-12-18T02:31:35;-3.39;70.80
68556;HTU21D;55544;51.032;5.866;2022-12-18T02:34:05;-3.41;70.72
68556;HTU21D;55544;51.032;5.866;2022-12-18T02:36:39;-3.39;70.61
68556;HTU21D;55544;51.032;5.866;2022-12-18T02:39:10;-3.38;70.52
68556;HTU21D;55544;51.032;5.866;2022-12-18T02:41:41;-3.38;70.35
68556;HTU21D;55544;51.032;5.866;2022-12-18T02:44:11;-3.40;70.24
68556;HTU21D;55544;51.032;5.866;2022-12-18T02:46:43;-3.42;70.42
68556;HTU21D;55544;51.032;5.866;2022-12-18T02:49:22;-3.45;70.59
68556;HTU21D;55544;51.032;5.866;2022-12-18T02:55:18;-3.46;70.49
68556;HTU21D;55544;51.032;5.866;2022-12-18T02:58:09;-3.46;70.51
68556;HTU21D;55544;51.032;5.866;2022-12-18T03:03:25;-3.54;70.76
68556;HTU21D;55544;51.032;5.866;2022-12-18T03:06:06;-3.57;70.87
68556;HTU21D;55544;51.032;5.866;2022-12-18T03:08:47;-3.56;70.97
68556;HTU21D;55544;51.032;5.866;2022-12-18T03:11:14;-3.57;71.05
68556;HTU21D;55544;51.032;5.866;2022-12-18T03:13:52;-3.56;71.19
68556;HTU21D;55544;51.032;5.866;2022-12-18T03:16:25;-3.57;71.16
68556;HTU21D;55544;51.032;5.866;2022-12-18T03:19:08;-3.58;71.16
68556;HTU21D;55544;51.032;5.866;2022-12-18T03:21:45;-3.61;71.27
68556;HTU21D;55544;51.032;5.866;2022-12-18T03:24:16;-3.61;71.33
68556;HTU21D;55544;51.032;5.866;2022-12-18T03:26:47;-3.63;71.32
68556;HTU21D;55544;51.032;5.866;2022-12-18T03:29:40;-3.62;71.32
68556;HTU21D;55544;51.032;5.866;2022-12-18T03:32:20;-3.64;71.20
68556;HTU21D;55544;51.032;5.866;2022-12-18T03:34:52;-3.67;71.47
68556;HTU21D;55544;51.032;5.866;2022-12-18T03:37:22;-3.68;71.74
68556;HTU21D;55544;51.032;5.866;2022-12-18T03:39:48;-3.65;71.87
68556;HTU21D;55544;51.032;5.866;2022-12-18T03:42:21;-3.64;71.84
68556;HTU21D;55544;51.032;5.866;2022-12-18T03:55:32;-3.61;72.51
68556;HTU21D;55544;51.032;5.866;2022-12-18T03:58:04;-3.61;72.70
68556;HTU21D;55544;51.032;5.866;2022-12-18T04:00:44;-3.57;72.71
68556;HTU21D;55544;51.032;5.866;2022-12-18T04:03:11;-3.55;72.59
68556;HTU21D;55544;51.032;5.866;2022-12-18T04:05:44;-3.56;72.57
68556;HTU21D;55544;51.032;5.866;2022-12-18T04:08:12;-3.58;72.63
68556;HTU21D;55544;51.032;5.866;2022-12-18T04:10:42;-3.61;72.90
68556;HTU21D;55544;51.032;5.866;2022-12-18T04:13:09;-3.63;73.16
68556;HTU21D;55544;51.032;5.866;2022-12-18T04:15:37;-3.64;73.28
68556;HTU21D;55544;51.032;5.866;2022-12-18T04:18:05;-3.64;73.48
68556;HTU21D;55544;51.032;5.866;2022-12-18T04:20:38;-3.60;73.51
68556;HTU21D;55544;51.032;5.866;2022-12-18T04:23:04;-3.58;73.60
68556;HTU21D;55544;51.032;5.866;2022-12-18T04:25:30;-3.56;73.48
68556;HTU21D;55544;51.032;5.866;2022-12-18T04:28:05;-3.55;73.45
68556;HTU21D;55544;51.032;5.866;2022-12-18T04:30:31;-3.53;73.61
68556;HTU21D;55544;51.032;5.866;2022-12-18T04:32:57;-3.54;73.64
68556;HTU21D;55544;51.032;5.866;2022-12-18T04:35:23;-3.54;73.72
68556;HTU21D;55544;51.032;5.866;2022-12-18T04:37:49;-3.51;73.76
68556;HTU21D;55544;51.032;5.866;2022-12-18T04:40:15;-3.49;73.75
68556;HTU21D;55544;51.032;5.866;2022-12-18T04:42:44;-3.46;73.80
68556;HTU21D;55544;51.032;5.866;2022-12-18T04:45:10;-3.45;73.73
68556;HTU21D;55544;51.032;5.866;2022-12-18T04:47:35;-3.43;73.74
68556;HTU21D;55544;51.032;5.866;2022-12-18T04:50:02;-3.43;73.66
68556;HTU21D;55544;51.032;5.866;2022-12-18T04:52:28;-3.41;73.57
68556;HTU21D;55544;51.032;5.866;2022-12-18T04:54:56;-3.40;73.29
68556;HTU21D;55544;51.032;5.866;2022-12-18T04:57:22;-3.40;73.14
68556;HTU21D;55544;51.032;5.866;2022-12-18T04:59:48;-3.41;73.04
68556;HTU21D;55544;51.032;5.866;2022-12-18T05:02:14;-3.40;72.86
68556;HTU21D;55544;51.032;5.866;2022-12-18T05:04:39;-3.39;72.87
68556;HTU21D;55544;51.032;5.866;2022-12-18T05:07:05;-3.39;72.69
68556;HTU21D;55544;51.032;5.866;2022-12-18T05:09:31;-3.36;72.61
68556;HTU21D;55544;51.032;5.866;2022-12-18T05:11:56;-3.34;72.51
68556;HTU21D;55544;51.032;5.866;2022-12-18T05:14:22;-3.33;72.41
68556;HTU21D;55544;51.032;5.866;2022-12-18T05:16:48;-3.33;72.22
68556;HTU21D;55544;51.032;5.866;2022-12-18T05:19:14;-3.35;72.11
68556;HTU21D;55544;51.032;5.866;2022-12-18T05:21:39;-3.34;71.92
68556;HTU21D;55544;51.032;5.866;2022-12-18T05:24:05;-3.34;71.74
68556;HTU21D;55544;51.032;5.866;2022-12-18T05:26:31;-3.35;71.71
68556;HTU21D;55544;51.032;5.866;2022-12-18T05:28:57;-3.39;71.79
68556;HTU21D;55544;51.032;5.866;2022-12-18T05:31:22;-3.41;71.92
68556;HTU21D;55544;51.032;5.866;2022-12-18T05:33:48;-3.41;72.10
68556;HTU21D;55544;51.032;5.866;2022-12-18T05:36:14;-3.46;72.18
68556;HTU21D;55544;51.032;5.866;2022-12-18T05:38:40;-3.48;72.45
68556;HTU21D;55544;51.032;5.866;2022-12-18T05:41:07;-3.47;72.46
68556;HTU21D;55544;51.032;5.866;2022-12-18T05:43:36;-3.47;72.48
68556;HTU21D;55544;51.032;5.866;2022-12-18T05:46:08;-3.47;72.46
68556;HTU21D;55544;51.032;5.866;2022-12-18T05:48:34;-3.48;72.47
68556;HTU21D;55544;51.032;5.866;2022-12-18T05:51:08;-3.49;72.51
68556;HTU21D;55544;51.032;5.866;2022-12-18T05:53:36;-3.48;72.54
68556;HTU21D;55544;51.032;5.866;2022-12-18T05:56:04;-3.49;72.58
68556;HTU21D;55544;51.032;5.866;2022-12-18T05:58:31;-3.47;72.54
68556;HTU21D;55544;51.032;5.866;2022-12-18T06:00:57;-3.50;72.37
68556;HTU21D;55544;51.032;5.866;2022-12-18T06:03:24;-3.52;72.64
68556;HTU21D;55544;51.032;5.866;2022-12-18T06:05:49;-3.56;72.78
68556;HTU21D;55544;51.032;5.866;2022-12-18T06:08:15;-3.56;72.85
68556;HTU21D;55544;51.032;5.866;2022-12-18T06:10:41;-3.54;72.98
68556;HTU21D;55544;51.032;5.866;2022-12-18T06:13:07;-3.54;72.82
68556;HTU21D;55544;51.032;5.866;2022-12-18T06:15:36;-3.54;73.00
68556;HTU21D;55544;51.032;5.866;2022-12-18T06:18:02;-3.52;72.97
68556;HTU21D;55544;51.032;5.866;2022-12-18T06:20:31;-3.51;72.90
68556;HTU21D;55544;51.032;5.866;2022-12-18T06:22:57;-3.54;73.07
68556;HTU21D;55544;51.032;5.866;2022-12-18T06:25:22;-3.57;73.25
68556;HTU21D;55544;51.032;5.866;2022-12-18T06:27:48;-3.57;73.44
68556;HTU21D;55544;51.032;5.866;2022-12-18T06:30:15;-3.60;73.61
68556;HTU21D;55544;51.032;5.866;2022-12-18T06:32:40;-3.63;73.73
68556;HTU21D;55544;51.032;5.866;2022-12-18T06:35:06;-3.68;73.95
68556;HTU21D;55544;51.032;5.866;2022-12-18T06:37:32;-3.76;74.38
68556;HTU21D;55544;51.032;5.866;2022-12-18T06:39:58;-3.76;74.64
68556;HTU21D;55544;51.032;5.866;2022-12-18T06:42:24;-3.74;74.70
68556;HTU21D;55544;51.032;5.866;2022-12-18T06:44:50;-3.75;74.65
68556;HTU21D;55544;51.032;5.866;2022-12-18T06:47:16;-3.74;74.64
68556;HTU21D;55544;51.032;5.866;2022-12-18T06:49:42;-3.76;74.78
68556;HTU21D;55544;51.032;5.866;2022-12-18T06:52:08;-3.71;74.70
68556;HTU21D;55544;51.032;5.866;2022-12-18T06:54:34;-3.74;74.57
68556;HTU21D;55544;51.032;5.866;2022-12-18T06:57:00;-3.75;74.70
68556;HTU21D;55544;51.032;5.866;2022-12-18T06:59:25;-3.72;74.67
68556;HTU21D;55544;51.032;5.866;2022-12-18T07:01:51;-3.69;74.57
68556;HTU21D;55544;51.032;5.866;2022-12-18T07:04:17;-3.65;74.44
68556;HTU21D;55544;51.032;5.866;2022-12-18T07:06:42;-3.58;74.23
68556;HTU21D;55544;51.032;5.866;2022-12-18T07:09:08;-3.55;73.99
68556;HTU21D;55544;51.032;5.866;2022-12-18T07:11:34;-3.54;73.72
68556;HTU21D;55544;51.032;5.866;2022-12-18T07:13:59;-3.53;73.64
68556;HTU21D;55544;51.032;5.866;2022-12-18T07:16:25;-3.52;73.59
68556;HTU21D;55544;51.032;5.866;2022-12-18T07:18:52;-3.56;73.67
68556;HTU21D;55544;51.032;5.866;2022-12-18T07:21:19;-3.58;73.83
68556;HTU21D;55544;51.032;5.866;2022-12-18T07:23:45;-3.56;73.93
68556;HTU21D;55544;51.032;5.866;2022-12-18T07:26:15;-3.54;73.94
68556;HTU21D;55544;51.032;5.866;2022-12-18T07:28:41;-3.56;74.06
68556;HTU21D;55544;51.032;5.866;2022-12-18T07:31:10;-3.51;74.03
68556;HTU21D;55544;51.032;5.866;2022-12-18T07:33:37;-3.50;73.86
68556;HTU21D;55544;51.032;5.866;2022-12-18T07:36:04;-3.48;73.89
68556;HTU21D;55544;51.032;5.866;2022-12-18T07:38:32;-3.49;73.64
68556;HTU21D;55544;51.032;5.866;2022-12-18T07:41:06;-3.50;73.88
68556;HTU21D;55544;51.032;5.866;2022-12-18T07:43:33;-3.49;73.91
68556;HTU21D;55544;51.032;5.866;2022-12-18T07:46:00;-3.47;74.00
68556;HTU21D;55544;51.032;5.866;2022-12-18T07:48:26;-3.50;74.06
68556;HTU21D;55544;51.032;5.866;2022-12-18T07:50:52;-3.47;74.22
68556;HTU21D;55544;51.032;5.866;2022-12-18T07:53:17;-3.48;74.24
68556;HTU21D;55544;51.032;5.866;2022-12-18T07:55:43;-3.52;74.38
68556;HTU21D;55544;51.032;5.866;2022-12-18T07:58:09;-3.52;74.54
68556;HTU21D;55544;51.032;5.866;2022-12-18T08:00:35;-3.48;74.82
68556;HTU21D;55544;51.032;5.866;2022-12-18T08:03:01;-3.49;74.90
68556;HTU21D;55544;51.032;5.866;2022-12-18T08:05:28;-3.46;75.05
68556;HTU21D;55544;51.032;5.866;2022-12-18T08:07:54;-3.62;75.52
68556;HTU21D;55544;51.032;5.866;2022-12-18T08:10:20;-3.57;75.76
68556;HTU21D;55544;51.032;5.866;2022-12-18T08:12:49;-3.48;75.83
68556;HTU21D;55544;51.032;5.866;2022-12-18T08:15:15;-3.50;75.92
68556;HTU21D;55544;51.032;5.866;2022-12-18T08:17:41;-3.49;75.84
68556;HTU21D;55544;51.032;5.866;2022-12-18T08:20:07;-3.42;76.14
68556;HTU21D;55544;51.032;5.866;2022-12-18T08:22:34;-3.30;75.95
68556;HTU21D;55544;51.032;5.866;2022-12-18T08:25:01;-3.19;75.61
68556;HTU21D;55544;51.032;5.866;2022-12-18T08:27:27;-3.05;75.27
68556;HTU21D;55544;51.032;5.866;2022-12-18T08:29:53;-3.05;74.73
68556;HTU21D;55544;51.032;5.866;2022-12-18T08:32:18;-2.88;75.00
68556;HTU21D;55544;51.032;5.866;2022-12-18T08:34:44;-2.65;74.79
68556;HTU21D;55544;51.032;5.866;2022-12-18T08:37:10;-1.82;74.47
68556;HTU21D;55544;51.032;5.866;2022-12-18T08:39:35;-1.03;70.80
68556;HTU21D;55544;51.032;5.866;2022-12-18T08:42:01;-1.18;70.46
68556;HTU21D;55544;51.032;5.866;2022-12-18T08:44:45;-1.15;70.37
68556;HTU21D;55544;51.032;5.866;2022-12-18T08:47:11;-1.01;70.11
68556;HTU21D;55544;51.032;5.866;2022-12-18T08:49:36;-0.94;69.62
68556;HTU21D;55544;51.032;5.866;2022-12-18T08:52:02;-0.94;69.25
68556;HTU21D;55544;51.032;5.866;2022-12-18T08:54:28;-1.02;69.44
68556;HTU21D;55544;51.032;5.866;2022-12-18T08:56:54;-1.17;69.72
68556;HTU21D;55544;51.032;5.866;2022-12-18T08:59:20;-1.45;70.50
68556;HTU21D;55544;51.032;5.866;2022-12-18T09:01:46;-1.45;71.05
68556;HTU21D;55544;51.032;5.866;2022-12-18T09:04:12;-1.35;71.48
68556;HTU21D;55544;51.032;5.866;2022-12-18T09:06:39;-1.21;71.28
68556;HTU21D;55544;51.032;5.866;2022-12-18T09:09:05;-1.06;70.91
68556;HTU21D;55544;51.032;5.866;2022-12-18T09:11:32;-0.95;70.65
68556;HTU21D;55544;51.032;5.866;2022-12-18T09:14:00;-0.90;70.28
68556;HTU21D;55544;51.032;5.866;2022-12-18T09:16:28;-0.85;70.23
68556;HTU21D;55544;51.032;5.866;2022-12-18T09:18:58;-0.81;70.07
68556;HTU21D;55544;51.032;5.866;2022-12-18T09:21:30;-0.86;69.84
68556;HTU21D;55544;51.032;5.866;2022-12-18T09:23:56;-0.87;69.99
68556;HTU21D;55544;51.032;5.866;2022-12-18T09:26:23;-0.88;70.12
68556;HTU21D;55544;51.032;5.866;2022-12-18T09:28:49;-1.01;70.25
68556;HTU21D;55544;51.032;5.866;2022-12-18T09:31:17;-1.05;70.77
68556;HTU21D;55544;51.032;5.866;2022-12-18T09:33:43;-1.09;70.99
68556;HTU21D;55544;51.032;5.866;2022-12-18T09:36:13;-1.10;71.22
68556;HTU21D;55544;51.032;5.866;2022-12-18T09:38:39;-0.99;71.45
68556;HTU21D;55544;51.032;5.866;2022-12-18T09:43:56;-0.75;71.41
68556;HTU21D;55544;51.032;5.866;2022-12-18T09:46:41;-0.57;70.95
68556;HTU21D;55544;51.032;5.866;2022-12-18T09:49:14;-0.55;70.53
68556;HTU21D;55544;51.032;5.866;2022-12-18T09:52:03;-0.64;70.52
68556;HTU21D;55544;51.032;5.866;2022-12-18T09:57:33;-0.47;71.11
68556;HTU21D;55544;51.032;5.866;2022-12-18T10:00:19;-0.41;70.93
68556;HTU21D;55544;51.032;5.866;2022-12-18T10:02:46;-0.28;70.57
68556;HTU21D;55544;51.032;5.866;2022-12-18T10:05:28;-0.22;70.58
68556;HTU21D;55544;51.032;5.866;2022-12-18T10:08:03;-0.12;69.92
68556;HTU21D;55544;51.032;5.866;2022-12-18T10:16:08;0.17;69.70
68556;HTU21D;55544;51.032;5.866;2022-12-18T10:18:54;0.33;69.52
68556;HTU21D;55544;51.032;5.866;2022-12-18T10:21:32;0.42;68.99
68556;HTU21D;55544;51.032;5.866;2022-12-18T10:26:41;0.44;69.09
68556;HTU21D;55544;51.032;5.866;2022-12-18T10:29:15;0.48;69.07
68556;HTU21D;55544;51.032;5.866;2022-12-18T10:31:41;0.51;69.16
68556;HTU21D;55544;51.032;5.866;2022-12-18T10:34:11;0.61;69.42
68556;HTU21D;55544;51.032;5.866;2022-12-18T10:36:41;0.77;68.88
68556;HTU21D;55544;51.032;5.866;2022-12-18T10:39:24;0.88;68.56
68556;HTU21D;55544;51.032;5.866;2022-12-18T10:41:52;0.83;68.12
68556;HTU21D;55544;51.032;5.866;2022-12-18T10:44:34;0.86;68.72
68556;HTU21D;55544;51.032;5.866;2022-12-18T10:47:05;0.93;68.58
68556;HTU21D;55544;51.032;5.866;2022-12-18T10:49:33;0.92;68.26
68556;HTU21D;55544;51.032;5.866;2022-12-18T10:52:19;0.94;68.60
68556;HTU21D;55544;51.032;5.866;2022-12-18T10:54:52;0.97;68.41
68556;HTU21D;55544;51.032;5.866;2022-12-18T10:57:38;0.91;68.41
68556;HTU21D;55544;51.032;5.866;2022-12-18T11:00:25;0.87;68.57
68556;HTU21D;55544;51.032;5.866;2022-12-18T11:02:54;0.82;69.02
68556;HTU21D;55544;51.032;5.866;2022-12-18T11:05:32;0.92;69.34
68556;HTU21D;55544;51.032;5.866;2022-12-18T11:08:00;0.93;69.17
68556;HTU21D;55544;51.032;5.866;2022-12-18T11:10:35;0.91;69.25
68556;HTU21D;55544;51.032;5.866;2022-12-18T11:13:21;0.80;69.61
68556;HTU21D;55544;51.032;5.866;2022-12-18T11:15:48;0.82;69.78
68556;HTU21D;55544;51.032;5.866;2022-12-18T11:18:30;0.81;69.78
68556;HTU21D;55544;51.032;5.866;2022-12-18T11:23:34;0.80;70.07
68556;HTU21D;55544;51.032;5.866;2022-12-18T11:26:05;0.80;70.11
68556;HTU21D;55544;51.032;5.866;2022-12-18T11:28:46;0.80;70.41
68556;HTU21D;55544;51.032;5.866;2022-12-18T11:34:09;0.88;70.73
68556;HTU21D;55544;51.032;5.866;2022-12-18T11:36:47;0.88;70.92
68556;HTU21D;55544;51.032;5.866;2022-12-18T11:39:24;0.93;70.98
68556;HTU21D;55544;51.032;5.866;2022-12-18T11:42:02;1.03;70.87
68556;HTU21D;55544;51.032;5.866;2022-12-18T11:45:14;1.14;70.90
68556;HTU21D;55544;51.032;5.866;2022-12-18T11:50:32;1.33;70.37
68556;HTU21D;55544;51.032;5.866;2022-12-18T11:52:59;1.34;70.03
68556;HTU21D;55544;51.032;5.866;2022-12-18T11:55:31;1.33;70.25
68556;HTU21D;55544;51.032;5.866;2022-12-18T12:07:02;1.66;69.86
68556;HTU21D;55544;51.032;5.866;2022-12-18T12:09:45;1.66;69.50
68556;HTU21D;55544;51.032;5.866;2022-12-18T12:18:27;1.86;69.47
68556;HTU21D;55544;51.032;5.866;2022-12-18T12:21:15;1.95;69.22
68556;HTU21D;55544;51.032;5.866;2022-12-18T12:35:22;1.98;69.16
68556;HTU21D;55544;51.032;5.866;2022-12-18T12:38:09;1.99;69.57
68556;HTU21D;55544;51.032;5.866;2022-12-18T12:40:49;2.02;69.58
68556;HTU21D;55544;51.032;5.866;2022-12-18T12:43:24;2.08;69.59
68556;HTU21D;55544;51.032;5.866;2022-12-18T12:46:09;2.11;69.41
68556;HTU21D;55544;51.032;5.866;2022-12-18T12:48:57;2.14;69.43
68556;HTU21D;55544;51.032;5.866;2022-12-18T12:51:32;2.20;69.62
68556;HTU21D;55544;51.032;5.866;2022-12-18T12:54:03;2.26;69.47
68556;HTU21D;55544;51.032;5.866;2022-12-18T13:04:37;2.42;68.99
68556;HTU21D;55544;51.032;5.866;2022-12-18T13:10:51;2.50;68.86
68556;HTU21D;55544;51.032;5.866;2022-12-18T13:13:04;2.50;68.96
68556;HTU21D;55544;51.032;5.866;2022-12-18T13:15:45;2.56;69.02
68556;HTU21D;55544;51.032;5.866;2022-12-18T13:25:56;2.53;68.97
68556;HTU21D;55544;51.032;5.866;2022-12-18T13:31:09;2.58;69.29
68556;HTU21D;55544;51.032;5.866;2022-12-18T13:33:43;2.61;69.33
68556;HTU21D;55544;51.032;5.866;2022-12-18T13:36:13;2.66;69.07
68556;HTU21D;55544;51.032;5.866;2022-12-18T13:38:41;2.66;69.13
68556;HTU21D;55544;51.032;5.866;2022-12-18T13:43:51;2.68;69.04
68556;HTU21D;55544;51.032;5.866;2022-12-18T13:46:21;2.68;69.04
68556;HTU21D;55544;51.032;5.866;2022-12-18T13:51:21;2.71;69.24
68556;HTU21D;55544;51.032;5.866;2022-12-18T13:53:58;2.73;69.13
68556;HTU21D;55544;51.032;5.866;2022-12-18T13:56:27;2.73;68.99
68556;HTU21D;55544;51.032;5.866;2022-12-18T14:01:36;2.74;68.97
68556;HTU21D;55544;51.032;5.866;2022-12-18T14:04:20;2.76;68.79
68556;HTU21D;55544;51.032;5.866;2022-12-18T14:06:47;2.76;68.75
68556;HTU21D;55544;51.032;5.866;2022-12-18T14:09:16;2.76;68.58
68556;HTU21D;55544;51.032;5.866;2022-12-18T14:11:48;2.76;68.67
68556;HTU21D;55544;51.032;5.866;2022-12-18T14:14:17;2.75;68.65
68556;HTU21D;55544;51.032;5.866;2022-12-18T14:16:43;2.70;68.65
68556;HTU21D;55544;51.032;5.866;2022-12-18T14:19:15;2.67;68.85
68556;HTU21D;55544;51.032;5.866;2022-12-18T14:21:46;2.64;68.82
68556;HTU21D;55544;51.032;5.866;2022-12-18T14:24:19;2.56;68.99
68556;HTU21D;55544;51.032;5.866;2022-12-18T14:26:47;2.52;69.17
68556;HTU21D;55544;51.032;5.866;2022-12-18T14:29:26;2.52;69.45
68556;HTU21D;55544;51.032;5.866;2022-12-18T14:34:34;2.58;69.18
68556;HTU21D;55544;51.032;5.866;2022-12-18T14:37:00;2.61;69.07
68556;HTU21D;55544;51.032;5.866;2022-12-18T14:39:25;2.60;68.81
68556;HTU21D;55544;51.032;5.866;2022-12-18T14:41:52;2.58;68.78
68556;HTU21D;55544;51.032;5.866;2022-12-18T14:44:18;2.55;68.92
68556;HTU21D;55544;51.032;5.866;2022-12-18T14:46:46;2.56;69.14
68556;HTU21D;55544;51.032;5.866;2022-12-18T14:49:35;2.57;69.23
68556;HTU21D;55544;51.032;5.866;2022-12-18T14:52:05;2.61;69.15
68556;HTU21D;55544;51.032;5.866;2022-12-18T14:54:35;2.64;68.99
68556;HTU21D;55544;51.032;5.866;2022-12-18T14:57:24;2.59;68.53
68556;HTU21D;55544;51.032;5.866;2022-12-18T14:59:51;2.54;68.05
68556;HTU21D;55544;51.032;5.866;2022-12-18T15:02:24;2.51;68.23
68556;HTU21D;55544;51.032;5.866;2022-12-18T15:07:43;2.45;67.74
68556;HTU21D;55544;51.032;5.866;2022-12-18T15:10:22;2.43;67.72
68556;HTU21D;55544;51.032;5.866;2022-12-18T15:20:41;2.24;68.08
68556;HTU21D;55544;51.032;5.866;2022-12-18T15:26:10;2.15;68.51
68556;HTU21D;55544;51.032;5.866;2022-12-18T15:29:15;2.19;68.74
68556;HTU21D;55544;51.032;5.866;2022-12-18T15:31:41;2.16;68.68
68556;HTU21D;55544;51.032;5.866;2022-12-18T15:34:14;2.14;68.86
68556;HTU21D;55544;51.032;5.866;2022-12-18T15:36:43;2.16;68.90
68556;HTU21D;55544;51.032;5.866;2022-12-18T15:39:11;2.17;69.02
68556;HTU21D;55544;51.032;5.866;2022-12-18T15:41:37;2.22;68.98
68556;HTU21D;55544;51.032;5.866;2022-12-18T15:44:22;2.24;68.87
68556;HTU21D;55544;51.032;5.866;2022-12-18T15:46:49;2.22;68.84
68556;HTU21D;55544;51.032;5.866;2022-12-18T15:49:14;2.22;68.91
68556;HTU21D;55544;51.032;5.866;2022-12-18T15:51:40;2.22;69.00
68556;HTU21D;55544;51.032;5.866;2022-12-18T15:54:12;2.20;69.03
68556;HTU21D;55544;51.032;5.866;2022-12-18T15:56:38;2.16;69.20
68556;HTU21D;55544;51.032;5.866;2022-12-18T15:59:23;2.15;69.52
68556;HTU21D;55544;51.032;5.866;2022-12-18T16:01:51;2.16;69.46
68556;HTU21D;55544;51.032;5.866;2022-12-18T16:04:20;2.19;69.51
68556;HTU21D;55544;51.032;5.866;2022-12-18T16:06:46;2.14;69.44
68556;HTU21D;55544;51.032;5.866;2022-12-18T16:09:12;2.15;69.68
68556;HTU21D;55544;51.032;5.866;2022-12-18T16:11:42;2.16;69.62
68556;HTU21D;55544;51.032;5.866;2022-12-18T16:14:21;2.11;69.66
68556;HTU21D;55544;51.032;5.866;2022-12-18T16:16:51;2.08;69.93
68556;HTU21D;55544;51.032;5.866;2022-12-18T16:19:18;2.09;70.12
68556;HTU21D;55544;51.032;5.866;2022-12-18T16:21:44;2.12;70.32
68556;HTU21D;55544;51.032;5.866;2022-12-18T16:24:28;2.14;70.17
68556;HTU21D;55544;51.032;5.866;2022-12-18T16:26:56;2.12;70.16
68556;HTU21D;55544;51.032;5.866;2022-12-18T16:29:24;2.09;70.26
68556;HTU21D;55544;51.032;5.866;2022-12-18T16:32:01;2.03;70.35
68556;HTU21D;55544;51.032;5.866;2022-12-18T16:34:33;1.99;70.48
68556;HTU21D;55544;51.032;5.866;2022-12-18T16:37:04;1.98;70.73
68556;HTU21D;55544;51.032;5.866;2022-12-18T16:39:31;1.98;70.52
68556;HTU21D;55544;51.032;5.866;2022-12-18T16:41:58;1.95;70.64
68556;HTU21D;55544;51.032;5.866;2022-12-18T16:44:24;1.87;70.84
68556;HTU21D;55544;51.032;5.866;2022-12-18T16:46:51;1.83;71.07
68556;HTU21D;55544;51.032;5.866;2022-12-18T16:49:18;1.84;71.11
68556;HTU21D;55544;51.032;5.866;2022-12-18T16:51:45;1.81;71.28
68556;HTU21D;55544;51.032;5.866;2022-12-18T16:54:12;1.80;71.23
68556;HTU21D;55544;51.032;5.866;2022-12-18T16:56:38;1.85;71.40
68556;HTU21D;55544;51.032;5.866;2022-12-18T16:59:04;1.88;71.03
68556;HTU21D;55544;51.032;5.866;2022-12-18T17:01:31;1.90;70.93
68556;HTU21D;55544;51.032;5.866;2022-12-18T17:04:03;1.87;70.93
68556;HTU21D;55544;51.032;5.866;2022-12-18T17:06:32;1.83;70.96
68556;HTU21D;55544;51.032;5.866;2022-12-18T17:09:00;1.80;70.97
68556;HTU21D;55544;51.032;5.866;2022-12-18T17:11:29;1.79;71.08
68556;HTU21D;55544;51.032;5.866;2022-12-18T17:13:55;1.80;70.95
68556;HTU21D;55544;51.032;5.866;2022-12-18T17:16:21;1.79;70.88
68556;HTU21D;55544;51.032;5.866;2022-12-18T17:18:47;1.77;71.03
68556;HTU21D;55544;51.032;5.866;2022-12-18T17:21:14;1.79;71.03
68556;HTU21D;55544;51.032;5.866;2022-12-18T17:23:41;1.81;70.92
68556;HTU21D;55544;51.032;5.866;2022-12-18T17:26:09;1.83;70.81
68556;HTU21D;55544;51.032;5.866;2022-12-18T17:28:36;1.83;70.77
68556;HTU21D;55544;51.032;5.866;2022-12-18T17:31:10;1.86;71.00
68556;HTU21D;55544;51.032;5.866;2022-12-18T17:33:36;1.88;70.79
68556;HTU21D;55544;51.032;5.866;2022-12-18T17:36:02;1.87;70.62
68556;HTU21D;55544;51.032;5.866;2022-12-18T17:38:28;1.82;70.76
68556;HTU21D;55544;51.032;5.866;2022-12-18T17:40:59;1.76;70.84
68556;HTU21D;55544;51.032;5.866;2022-12-18T17:43:25;1.75;71.13